Terminal Aerodrome Forecast
Issued by NWS

Home | Current Version | Previous Version | Graphics & Text | Print | Product List | Glossary On
Versions: 1 2 3 4 5 6 7 8 9 10 11 12 13 14
000
FTUS43 KGRB 302300
TAFATW
TAF
KATW 302325Z 0100/0124 02005KT P6SM FEW070
     FM010400 VRB03KT P6SM SKC
     FM011600 24005KT P6SM FEW040 SCT250=

USA.gov is the U.S. government's official web portal to all federal, state and local government web resources and services.